Time;durP1;ratioP1;P1;durP2;ratioP2;P2;SDS_P1;SDS_P2;PMS_P1;PMS_P2;Temp;Humidity;BMP_temperature;BMP_pressure;BME280_temperature;BME280_humidity;BME280_pressure;Samples;Min_cycle;Max_cycle;Signal;HPM_P1;HPM_P2
2022/05/11 00:00:29;;;;;;;1.08;0.40;;;19.60;52.60;;;;;;5117639;27;20080;-73
2022/05/11 00:02:55;;;;;;;2.08;0.40;;;19.60;52.70;;;;;;5136470;27;20035;-68
2022/05/11 00:05:21;;;;;;;0.70;0.30;;;19.60;52.60;;;;;;5117777;27;20031;-73
2022/05/11 00:07:48;;;;;;;0.70;0.30;;;19.60;52.60;;;;;;5117307;27;20111;-68
2022/05/11 00:10:14;;;;;;;2.03;0.40;;;19.60;52.60;;;;;;5117662;27;20051;-75
2022/05/11 00:12:42;;;;;;;1.23;0.40;;;19.60;52.60;;;;;;5117611;27;20043;-73
2022/05/11 00:15:10;;;;;;;1.30;0.30;;;19.60;52.60;;;;;;5135941;27;20072;-73
2022/05/11 00:17:36;;;;;;;2.00;0.38;;;19.60;52.70;;;;;;5117282;27;20454;-74
2022/05/11 00:20:03;;;;;;;1.45;0.30;;;19.50;52.60;;;;;;5117351;27;20071;-72
2022/05/11 00:22:29;;;;;;;1.05;0.40;;;19.50;52.60;;;;;;5117422;27;20045;-74
2022/05/11 00:24:55;;;;;;;1.42;0.43;;;19.50;52.60;;;;;;5117104;27;20382;-74
2022/05/11 00:27:20;;;;;;;0.70;0.22;;;19.60;52.70;;;;;;5117187;27;20035;-73
2022/05/11 00:29:52;;;;;;;0.60;0.32;;;19.50;52.60;;;;;;5135045;27;20482;-74
2022/05/11 00:32:17;;;;;;;1.50;0.43;;;19.50;52.60;;;;;;5117133;27;20043;-73
2022/05/11 00:34:43;;;;;;;0.82;0.32;;;19.50;52.60;;;;;;5116978;27;20045;-73
2022/05/11 00:37:12;;;;;;;1.17;0.47;;;19.50;52.60;;;;;;5117002;27;20031;-74
2022/05/11 00:39:37;;;;;;;1.65;0.50;;;19.50;52.60;;;;;;5117021;27;20062;-73
2022/05/11 00:42:04;;;;;;;0.63;0.30;;;19.50;52.70;;;;;;5116878;27;20067;-73
2022/05/11 00:44:30;;;;;;;1.10;0.40;;;19.50;52.60;;;;;;5117097;27;20035;-73
2022/05/11 00:47:01;;;;;;;0.88;0.30;;;19.50;52.60;;;;;;5116654;27;20478;-75
2022/05/11 00:49:38;;;;;;;1.45;0.50;;;19.50;52.70;;;;;;5135361;27;20053;-67
2022/05/11 00:52:20;;;;;;;1.58;0.38;;;19.50;52.70;;;;;;5135238;27;20042;-74
2022/05/11 00:55:05;;;;;;;1.30;0.40;;;19.50;52.70;;;;;;5116707;27;20046;-73
2022/05/11 01:00:21;;;;;;;1.17;0.40;;;19.50;52.70;;;;;;5109817;27;20115;-71
2022/05/11 01:02:57;;;;;;;0.90;0.30;;;19.50;52.70;;;;;;5108601;28;20040;-72
2022/05/11 01:05:23;;;;;;;1.25;0.30;;;19.50;52.70;;;;;;5108437;28;20040;-71
2022/05/11 01:07:52;;;;;;;0.95;0.30;;;19.40;52.70;;;;;;5108341;28;20063;-71
2022/05/11 01:10:17;;;;;;;0.73;0.30;;;19.50;52.70;;;;;;5108327;28;20039;-67
2022/05/11 01:12:47;;;;;;;0.77;0.43;;;19.40;52.70;;;;;;5108329;28;20122;-71
2022/05/11 01:15:16;;;;;;;0.93;0.35;;;19.40;52.70;;;;;;5108158;28;20082;-70
2022/05/11 01:17:42;;;;;;;1.03;0.40;;;19.40;52.70;;;;;;5108169;28;20051;-71
2022/05/11 01:20:14;;;;;;;1.83;0.30;;;19.40;52.70;;;;;;5107950;28;20063;-66
2022/05/11 01:25:21;;;;;;;0.97;0.40;;;19.40;52.70;;;;;;5154581;27;1160841;-72
2022/05/11 01:27:48;;;;;;;0.80;0.43;;;19.40;52.70;;;;;;5153278;27;20272;-71
2022/05/11 01:30:17;;;;;;;0.65;0.20;;;19.40;52.80;;;;;;5153025;27;20042;-73
2022/05/11 01:32:46;;;;;;;1.23;0.60;;;19.40;52.80;;;;;;5153246;27;20106;-71
2022/05/11 01:38:30;;;;;;;1.25;0.45;;;19.40;52.80;;;;;;5109618;27;20404;-71
2022/05/11 01:40:57;;;;;;;0.85;0.35;;;19.40;52.90;;;;;;5090962;28;20126;-72
2022/05/11 01:43:26;;;;;;;1.48;0.30;;;19.40;52.90;;;;;;5091607;28;20031;-71
2022/05/11 01:45:56;;;;;;;1.20;0.40;;;19.40;52.90;;;;;;5091470;28;20051;-70
2022/05/11 01:48:22;;;;;;;1.05;0.30;;;19.30;52.80;;;;;;5092187;28;20036;-71
2022/05/11 01:50:48;;;;;;;2.72;0.30;;;19.30;52.90;;;;;;5091845;28;20044;-72
2022/05/11 01:53:14;;;;;;;0.73;0.20;;;19.30;52.90;;;;;;5091178;28;20075;-71
2022/05/11 01:55:40;;;;;;;2.80;0.73;;;19.30;52.90;;;;;;5091102;28;20075;-72
2022/05/11 01:58:11;;;;;;;0.75;0.30;;;19.30;52.90;;;;;;5091351;28;20032;-71
2022/05/11 02:00:38;;;;;;;0.70;0.30;;;19.30;52.90;;;;;;5091005;28;20067;-73
2022/05/11 02:03:04;;;;;;;2.42;0.40;;;19.30;52.90;;;;;;5091179;28;20391;-71
2022/05/11 02:08:19;;;;;;;1.50;0.50;;;19.30;53.00;;;;;;5109025;28;20054;-71
2022/05/11 02:10:45;;;;;;;1.35;0.65;;;19.30;53.00;;;;;;5109369;28;20032;-71
2022/05/11 02:13:11;;;;;;;1.88;0.50;;;19.30;53.00;;;;;;5091037;28;20373;-72
2022/05/11 02:15:36;;;;;;;0.82;0.30;;;19.30;53.00;;;;;;5090438;28;20043;-71
2022/05/11 02:18:03;;;;;;;0.88;0.30;;;19.30;53.00;;;;;;5090710;28;20104;-72
2022/05/11 02:20:29;;;;;;;1.40;0.30;;;19.30;53.00;;;;;;5090595;28;20040;-71
2022/05/11 02:22:55;;;;;;;1.00;0.40;;;19.30;53.10;;;;;;5090687;28;20038;-72
2022/05/11 02:25:21;;;;;;;0.80;0.40;;;19.30;53.10;;;;;;5108784;28;20028;-72
2022/05/11 02:27:49;;;;;;;1.90;0.65;;;19.30;53.10;;;;;;5091175;28;20040;-71
2022/05/11 02:30:19;;;;;;;1.70;0.50;;;19.30;53.10;;;;;;5090373;28;20032;-73
2022/05/11 02:32:51;;;;;;;2.72;0.77;;;19.30;53.20;;;;;;5108691;28;20040;-71
2022/05/11 02:35:17;;;;;;;1.85;0.30;;;19.30;53.20;;;;;;5090446;28;20050;-72
2022/05/11 02:37:50;;;;;;;0.77;0.40;;;19.30;53.20;;;;;;5067036;28;20065;-71
2022/05/11 02:40:18;;;;;;;1.60;0.40;;;19.30;53.20;;;;;;5066701;28;20041;-67
2022/05/11 02:42:44;;;;;;;1.05;0.32;;;19.30;53.30;;;;;;5066810;28;20440;-71
2022/05/11 02:45:11;;;;;;;0.95;0.28;;;19.30;53.30;;;;;;5066327;28;20111;-71
2022/05/11 02:47:37;;;;;;;0.55;0.30;;;19.20;53.30;;;;;;5062030;28;20614;-65
2022/05/11 02:50:05;;;;;;;1.10;0.30;;;19.20;53.30;;;;;;5053253;28;20415;-72
2022/05/11 02:52:31;;;;;;;1.52;0.45;;;19.20;53.30;;;;;;5053462;28;20546;-73
2022/05/11 02:54:57;;;;;;;1.67;0.40;;;19.30;53.40;;;;;;5054524;28;20385;-72
2022/05/11 02:57:23;;;;;;;1.85;0.47;;;19.20;53.30;;;;;;5053065;28;20033;-67
2022/05/11 02:59:51;;;;;;;2.35;0.40;;;19.20;53.30;;;;;;5053308;28;20465;-71
2022/05/11 03:02:20;;;;;;;1.10;0.57;;;19.20;53.40;;;;;;5053083;28;20116;-71
2022/05/11 03:04:46;;;;;;;1.23;0.30;;;19.20;53.40;;;;;;5054465;28;20079;-73
2022/05/11 03:07:12;;;;;;;1.40;0.30;;;19.20;53.40;;;;;;5054189;28;20052;-71
2022/05/11 03:09:38;;;;;;;1.58;0.40;;;19.20;53.40;;;;;;5053174;28;20055;-72
2022/05/11 03:12:05;;;;;;;1.73;0.50;;;19.20;53.40;;;;;;5036176;28;20120;-73
2022/05/11 03:14:31;;;;;;;1.60;0.88;;;19.20;53.40;;;;;;5053871;28;20098;-71
2022/05/11 03:16:56;;;;;;;0.60;0.30;;;19.20;53.40;;;;;;5053857;28;20049;-71
2022/05/11 03:19:22;;;;;;;0.90;0.30;;;19.20;53.40;;;;;;5052787;28;20037;-66
2022/05/11 03:21:48;;;;;;;1.42;0.75;;;19.20;53.50;;;;;;5053979;28;20033;-71
2022/05/11 03:24:13;;;;;;;1.63;0.40;;;19.20;53.50;;;;;;5053760;28;20475;-71
2022/05/11 03:26:39;;;;;;;1.73;0.45;;;19.20;53.50;;;;;;5053925;28;20045;-71
2022/05/11 03:29:05;;;;;;;0.85;0.30;;;19.20;53.50;;;;;;5052421;28;20079;-71
2022/05/11 03:31:33;;;;;;;0.60;0.30;;;19.20;53.50;;;;;;5052539;28;20116;-66
2022/05/11 03:36:49;;;;;;;1.58;0.40;;;19.10;53.50;;;;;;5052071;28;20079;-65
2022/05/11 03:39:16;;;;;;;1.15;0.43;;;19.10;53.50;;;;;;5052595;28;20037;-70
2022/05/11 03:41:43;;;;;;;1.52;0.63;;;19.10;53.50;;;;;;5052557;28;20033;-68
2022/05/11 03:44:09;;;;;;;1.42;0.40;;;19.10;53.50;;;;;;5052509;28;20041;-71
2022/05/11 03:46:34;;;;;;;1.67;0.30;;;19.10;53.50;;;;;;5053545;28;20043;-70
2022/05/11 03:49:00;;;;;;;1.17;0.30;;;19.10;53.50;;;;;;5052569;28;20457;-71
2022/05/11 03:51:29;;;;;;;0.90;0.30;;;19.10;53.60;;;;;;5052560;28;20454;-71
2022/05/11 03:53:55;;;;;;;0.90;0.30;;;19.10;53.60;;;;;;5052155;28;20037;-71
2022/05/11 03:56:21;;;;;;;0.80;0.40;;;19.10;53.50;;;;;;5053691;28;20119;-71
2022/05/11 03:58:47;;;;;;;1.88;0.30;;;19.10;53.60;;;;;;5051820;28;20089;-72
2022/05/11 04:01:14;;;;;;;1.75;0.40;;;19.10;53.60;;;;;;5051447;28;20033;-71
2022/05/11 04:03:40;;;;;;;1.38;0.60;;;19.10;53.60;;;;;;5052178;28;20086;-71
2022/05/11 04:06:06;;;;;;;0.90;0.30;;;19.10;53.60;;;;;;5052264;28;20044;-71
2022/05/11 04:08:31;;;;;;;1.02;0.40;;;19.10;53.60;;;;;;5053149;28;20071;-71
2022/05/11 04:10:57;;;;;;;0.93;0.40;;;19.10;53.60;;;;;;5051919;28;20041;-71
2022/05/11 04:13:22;;;;;;;1.27;0.30;;;19.10;53.60;;;;;;5051660;28;20040;-73
2022/05/11 04:15:52;;;;;;;0.50;0.30;;;19.10;53.60;;;;;;5051807;28;20037;-69
2022/05/11 04:18:19;;;;;;;1.73;0.30;;;19.10;53.60;;;;;;5051675;28;20045;-66
2022/05/11 04:20:48;;;;;;;1.13;0.40;;;19.10;53.60;;;;;;5051781;28;20481;-71
2022/05/11 04:23:14;;;;;;;1.88;0.50;;;19.10;53.60;;;;;;5051645;28;20029;-65
2022/05/11 04:25:40;;;;;;;1.33;0.40;;;19.10;53.60;;;;;;5053335;28;20068;-71
2022/05/11 04:28:08;;;;;;;0.75;0.30;;;19.10;53.60;;;;;;5051783;28;20037;-73
2022/05/11 04:30:34;;;;;;;1.63;0.40;;;19.10;53.60;;;;;;5051692;28;20033;-65
2022/05/11 04:33:00;;;;;;;1.17;0.40;;;19.10;53.60;;;;;;5051621;28;20036;-69
2022/05/11 04:35:30;;;;;;;0.80;0.30;;;19.10;53.60;;;;;;5053398;28;20040;-70
2022/05/11 04:37:57;;;;;;;1.27;0.50;;;19.10;53.60;;;;;;5092947;28;20044;-70
2022/05/11 04:40:24;;;;;;;1.77;0.50;;;19.00;53.50;;;;;;5074792;28;20040;-71
2022/05/11 04:42:50;;;;;;;1.42;0.32;;;19.10;53.60;;;;;;5074957;28;20078;-71
2022/05/11 04:45:16;;;;;;;1.48;0.50;;;19.10;53.60;;;;;;5092813;28;20028;-72
2022/05/11 04:47:43;;;;;;;1.83;0.65;;;19.10;53.60;;;;;;5074761;28;20050;-71
2022/05/11 04:50:10;;;;;;;1.05;0.30;;;19.10;53.60;;;;;;5074542;28;20368;-73
2022/05/11 04:52:36;;;;;;;0.85;0.40;;;19.10;53.60;;;;;;5092851;28;20082;-71
2022/05/11 04:55:03;;;;;;;1.65;0.50;;;19.00;53.50;;;;;;5091200;28;20036;-66
2022/05/11 04:57:28;;;;;;;1.50;0.40;;;19.10;53.60;;;;;;5074371;28;20194;-67
2022/05/11 04:59:56;;;;;;;1.33;0.40;;;19.10;53.60;;;;;;5092905;28;20115;-71
2022/05/11 05:02:24;;;;;;;1.55;0.50;;;19.00;53.50;;;;;;5092303;28;20036;-70
2022/05/11 05:04:50;;;;;;;1.58;0.57;;;19.10;53.60;;;;;;5074140;28;20078;-71
2022/05/11 05:07:17;;;;;;;2.45;0.43;;;19.10;53.60;;;;;;5074064;28;20055;-71
2022/05/11 05:09:43;;;;;;;0.88;0.50;;;19.10;53.60;;;;;;5074080;28;20084;-70
2022/05/11 05:12:10;;;;;;;1.02;0.50;;;19.10;53.60;;;;;;5073609;28;20040;-71
2022/05/11 05:14:36;;;;;;;1.17;0.57;;;19.10;53.60;;;;;;5074007;28;20118;-71
2022/05/11 05:17:07;;;;;;;1.27;0.57;;;19.10;53.60;;;;;;5092017;28;20127;-71
2022/05/11 05:19:35;;;;;;;1.13;0.45;;;19.10;53.60;;;;;;5074382;28;20090;-70
2022/05/11 05:22:03;;;;;;;1.15;0.50;;;19.10;53.50;;;;;;5078937;28;20045;-65
2022/05/11 05:24:30;;;;;;;2.47;0.68;;;19.10;53.50;;;;;;5053885;28;20036;-70
2022/05/11 05:26:56;;;;;;;0.85;0.40;;;19.10;53.50;;;;;;5053011;28;20059;-71
2022/05/11 05:32:07;;;;;;;2.92;0.52;;;19.10;53.50;;;;;;5052714;28;20048;-72
2022/05/11 05:34:33;;;;;;;1.33;0.50;;;19.20;53.50;;;;;;5073561;28;20407;-71
2022/05/11 05:36:59;;;;;;;1.83;0.47;;;19.10;53.50;;;;;;5070376;28;20341;-73
2022/05/11 05:39:24;;;;;;;1.10;0.40;;;19.20;53.70;;;;;;5070768;28;20032;-73
2022/05/11 05:41:50;;;;;;;4.53;0.47;;;19.20;53.90;;;;;;5070024;28;20036;-71
2022/05/11 05:44:16;;;;;;;4.32;0.57;;;19.20;54.00;;;;;;5053227;28;20060;-73
2022/05/11 05:46:41;;;;;;;2.50;0.50;;;19.30;54.20;;;;;;5088223;28;20048;-72
2022/05/11 05:49:07;;;;;;;2.53;0.40;;;19.30;54.20;;;;;;5087672;28;20040;-71
2022/05/11 05:51:36;;;;;;;1.13;0.30;;;19.30;54.10;;;;;;5069191;28;20447;-69
2022/05/11 05:54:05;;;;;;;4.95;0.65;;;19.30;54.10;;;;;;5068509;28;20123;-72
2022/05/11 05:56:32;;;;;;;1.05;0.65;;;19.40;54.20;;;;;;5069500;28;20127;-67
2022/05/11 05:59:01;;;;;;;2.03;0.50;;;19.40;54.10;;;;;;5087570;28;20040;-73
2022/05/11 06:01:27;;;;;;;2.45;0.40;;;19.40;53.80;;;;;;5084478;28;20513;-71
2022/05/11 06:03:53;;;;;;;2.05;0.63;;;19.40;53.80;;;;;;5066978;28;20063;-73
2022/05/11 06:06:19;;;;;;;1.05;0.50;;;19.40;53.80;;;;;;5068518;28;20044;-71
2022/05/11 06:08:45;;;;;;;3.25;0.40;;;19.50;53.80;;;;;;5058772;28;20040;-73
2022/05/11 06:11:11;;;;;;;1.70;0.47;;;19.50;53.70;;;;;;5067480;28;20046;-72
2022/05/11 06:13:38;;;;;;;1.80;0.60;;;19.50;53.70;;;;;;5066016;28;20048;-72
2022/05/11 06:16:10;;;;;;;2.15;0.40;;;19.60;53.80;;;;;;5066854;28;20059;-72
2022/05/11 06:18:36;;;;;;;3.38;0.50;;;19.50;53.90;;;;;;5065782;28;20097;-71
2022/05/11 06:21:03;;;;;;;2.03;0.43;;;19.60;53.90;;;;;;5041596;28;20040;-72
2022/05/11 06:23:28;;;;;;;1.90;0.40;;;19.60;53.90;;;;;;5058353;28;20028;-71
2022/05/11 06:25:54;;;;;;;2.13;0.47;;;19.60;53.90;;;;;;5056654;28;20416;-73
2022/05/11 06:28:21;;;;;;;2.88;0.80;;;19.60;53.80;;;;;;5062134;28;20032;-73
2022/05/11 06:30:47;;;;;;;2.38;0.40;;;19.70;53.90;;;;;;5049519;28;20295;-67
2022/05/11 06:33:13;;;;;;;4.05;0.70;;;19.70;53.90;;;;;;5066061;28;20048;-74
2022/05/11 06:35:39;;;;;;;3.00;0.85;;;19.70;54.00;;;;;;5053646;28;20058;-72
2022/05/11 06:38:07;;;;;;;3.15;0.68;;;19.70;53.90;;;;;;5050166;28;20458;-67
2022/05/11 06:40:33;;;;;;;2.10;0.90;;;19.80;53.80;;;;;;5053088;28;20062;-73
2022/05/11 06:43:01;;;;;;;3.65;0.95;;;19.80;53.80;;;;;;5051445;28;20068;-72
2022/05/11 06:45:27;;;;;;;3.25;1.23;;;19.80;53.70;;;;;;5069940;28;20040;-74
2022/05/11 06:47:53;;;;;;;4.93;0.52;;;19.90;53.70;;;;;;5058467;28;20074;-69
2022/05/11 06:50:20;;;;;;;4.03;0.63;;;19.90;53.60;;;;;;5055204;28;20045;-73
2022/05/11 06:52:46;;;;;;;2.25;0.60;;;19.90;53.50;;;;;;5053373;28;20044;-72
2022/05/11 07:00:43;;;;;;;4.15;1.05;;;19.90;52.60;;;;;;5064639;28;20044;-73
2022/05/11 07:03:08;;;;;;;5.00;0.60;;;19.90;52.20;;;;;;5072778;28;20059;-74
2022/05/11 07:05:35;;;;;;;3.95;0.47;;;19.90;51.90;;;;;;5053251;28;20107;-73
2022/05/11 07:08:02;;;;;;;4.38;0.57;;;20.00;51.70;;;;;;5056958;28;20036;-73
2022/05/11 07:10:28;;;;;;;3.83;0.57;;;20.00;51.50;;;;;;5054867;28;20603;-73
2022/05/11 07:12:53;;;;;;;3.22;0.60;;;20.00;51.30;;;;;;5072658;28;20041;-73
2022/05/11 07:15:22;;;;;;;2.67;0.38;;;20.00;51.20;;;;;;5058664;28;20444;-74
2022/05/11 07:17:52;;;;;;;5.25;0.40;;;20.00;51.10;;;;;;5050770;28;20683;-72
2022/05/11 07:23:03;;;;;;;1.65;0.20;;;20.00;50.90;;;;;;5060777;27;21049;-72
2022/05/11 07:25:29;;;;;;;3.28;0.43;;;20.10;50.70;;;;;;5050907;28;20060;-72
2022/05/11 07:27:57;;;;;;;3.90;0.82;;;20.10;50.40;;;;;;5034995;28;20045;-67
2022/05/11 07:30:30;;;;;;;2.15;0.40;;;20.10;50.20;;;;;;5044971;28;20041;-73
2022/05/11 07:32:56;;;;;;;1.98;0.30;;;20.20;50.00;;;;;;5033335;28;20102;-71
2022/05/11 07:35:25;;;;;;;2.08;0.38;;;20.20;49.90;;;;;;5068244;28;20052;-74
2022/05/11 07:37:51;;;;;;;2.67;0.45;;;20.20;49.80;;;;;;5071462;28;20126;-73
2022/05/11 07:40:19;;;;;;;3.53;0.75;;;20.20;49.60;;;;;;5037308;28;20500;-72
2022/05/11 07:42:45;;;;;;;2.10;0.40;;;20.30;49.60;;;;;;5068506;28;20042;-73
2022/05/11 07:45:12;;;;;;;3.70;0.43;;;20.30;49.40;;;;;;5036243;28;20038;-69
2022/05/11 07:47:39;;;;;;;3.10;0.30;;;20.30;49.30;;;;;;5052317;28;20045;-73
2022/05/11 07:50:06;;;;;;;2.63;0.40;;;20.30;49.20;;;;;;5067539;28;20040;-74
2022/05/11 07:52:32;;;;;;;2.70;0.40;;;20.30;49.00;;;;;;5070122;28;20041;-69
2022/05/11 07:54:57;;;;;;;4.88;0.40;;;20.30;49.00;;;;;;5031160;28;20040;-73
2022/05/11 08:00:10;;;;;;;3.03;0.40;;;20.30;48.90;;;;;;5034886;28;20158;-74
2022/05/11 08:02:39;;;;;;;3.25;0.50;;;20.30;48.80;;;;;;5063163;28;20428;-74
2022/05/11 08:05:08;;;;;;;3.13;0.55;;;20.40;48.90;;;;;;5056832;28;20044;-75
2022/05/11 08:07:39;;;;;;;3.97;0.30;;;20.30;48.80;;;;;;5063827;28;20036;-75
2022/05/11 08:10:05;;;;;;;;;;;20.30;48.80;;;;;;5066918;28;20400;-68
2022/05/11 08:12:31;;;;;;;3.10;0.30;;;20.30;48.80;;;;;;5032578;28;20393;-75
2022/05/11 08:14:56;;;;;;;2.28;0.40;;;20.30;48.80;;;;;;5037515;28;20359;-68
2022/05/11 08:17:25;;;;;;;1.02;0.10;;;20.40;48.80;;;;;;5036661;28;20065;-69
2022/05/11 08:19:51;;;;;;;5.55;0.57;;;20.30;48.60;;;;;;5029652;28;20045;-76
2022/05/11 08:22:18;;;;;;;1.27;0.30;;;20.40;48.50;;;;;;5031040;28;20072;-76
2022/05/11 08:24:43;;;;;;;4.00;0.40;;;20.40;48.40;;;;;;5031752;28;20254;-75
2022/05/11 08:27:10;;;;;;;3.55;0.30;;;20.40;48.40;;;;;;5069629;28;20652;-76
2022/05/11 08:35:07;;;;;;;3.95;0.82;;;20.40;48.30;;;;;;5023043;28;20045;-72
2022/05/11 08:37:38;;;;;;;2.70;0.20;;;20.50;48.20;;;;;;5027989;28;20053;-75
2022/05/11 08:40:05;;;;;;;7.90;0.70;;;20.40;48.10;;;;;;5054414;28;20053;-71
2022/05/11 08:42:34;;;;;;;4.22;0.68;;;20.50;48.20;;;;;;5023644;28;20060;-73
2022/05/11 08:45:02;;;;;;;2.95;0.30;;;20.50;48.10;;;;;;5025764;28;20082;-73
2022/05/11 08:55:46;;;;;;;4.90;0.32;;;20.50;48.10;;;;;;5105972;27;20510;-68
2022/05/11 08:58:20;;;;;;;5.30;0.60;;;21.00;47.40;;;;;;5105245;28;20189;-69
2022/05/11 09:00:46;;;;;;;4.35;0.30;;;21.20;47.00;;;;;;5090587;28;20243;-74
2022/05/11 09:03:35;;;;;;;4.75;0.95;;;21.30;46.70;;;;;;5100227;27;20043;-71
2022/05/11 09:06:07;;;;;;;3.63;0.50;;;21.40;46.70;;;;;;5078587;28;20378;-72
2022/05/11 09:08:37;;;;;;;5.40;0.50;;;21.50;46.90;;;;;;5077801;28;20499;-69
2022/05/11 09:11:05;;;;;;;3.83;0.38;;;21.60;46.90;;;;;;5084000;28;20071;-70
2022/05/11 09:13:31;;;;;;;4.50;0.73;;;21.70;46.70;;;;;;5080512;28;20052;-65
2022/05/11 09:16:00;;;;;;;3.17;0.20;;;21.80;46.50;;;;;;5083368;28;20784;-73
2022/05/11 09:18:36;;;;;;;7.05;0.80;;;22.00;46.50;;;;;;5078768;28;20044;-71
2022/05/11 09:21:13;;;;;;;7.28;0.40;;;22.00;46.30;;;;;;5070171;28;20063;-65
2022/05/11 09:23:42;;;;;;;6.95;0.50;;;22.10;46.30;;;;;;5084702;28;20288;-65
2022/05/11 09:26:11;;;;;;;2.35;0.45;;;22.20;46.60;;;;;;5083548;28;20043;-73
2022/05/11 09:28:41;;;;;;;7.68;0.55;;;22.30;46.90;;;;;;5085075;28;20052;-71
2022/05/11 09:34:06;;;;;;;4.38;0.30;;;22.40;47.20;;;;;;5080233;27;20479;-72
2022/05/11 09:36:38;;;;;;;4.18;0.40;;;22.60;47.60;;;;;;5058761;28;20119;-70
2022/05/11 09:39:16;;;;;;;5.95;0.85;;;22.60;47.40;;;;;;5074435;28;20035;-74
2022/05/11 09:41:48;;;;;;;5.80;0.68;;;22.70;47.50;;;;;;5055726;28;20048;-74
2022/05/11 09:44:25;;;;;;;4.90;0.35;;;22.70;47.40;;;;;;5077400;28;20039;-75
2022/05/11 09:46:52;;;;;;;5.20;0.50;;;22.70;47.50;;;;;;5066389;28;20044;-71
2022/05/11 09:51:58;;;;;;;4.30;0.40;;;22.70;47.00;;;;;;5096011;27;21069;-70
2022/05/11 09:54:38;;;;;;;2.55;0.65;;;22.60;46.00;;;;;;5095478;28;20048;-72
2022/05/11 09:59:51;;;;;;;9.27;0.30;;;22.50;46.10;;;;;;5077257;27;20436;-73
2022/05/11 10:02:34;;;;;;;3.50;0.35;;;22.50;45.50;;;;;;5092021;28;20141;-72
2022/05/11 10:05:21;;;;;;;9.45;0.50;;;22.60;45.50;;;;;;5055403;28;20123;-70
2022/05/11 10:22:37;;;;;;;4.80;0.40;;;22.70;45.60;;;;;;5117842;27;20139;-73
2022/05/11 10:27:51;;;;;;;4.45;0.17;;;22.70;44.70;;;;;;5092779;27;20390;-69
2022/05/11 10:30:30;;;;;;;5.45;0.70;;;22.60;43.90;;;;;;5088972;28;20096;-69
2022/05/11 10:35:55;;;;;;;5.25;0.40;;;22.60;43.70;;;;;;5123089;27;20322;-68
2022/05/11 10:47:28;;;;;;;2.85;0.30;;;22.50;43.30;;;;;;5125145;27;20403;-72
2022/05/11 10:50:18;;;;;;;3.53;0.43;;;22.50;43.60;;;;;;5109731;28;20114;-72
2022/05/11 11:01:29;;;;;;;4.10;0.20;;;22.50;43.70;;;;;;5138996;27;20660;-76
2022/05/11 11:04:26;;;;;;;2.72;0.20;;;22.50;43.60;;;;;;5145229;27;20069;-73
2022/05/11 11:12:58;;;;;;;3.22;0.20;;;22.50;43.50;;;;;;5105797;27;20358;-74
2022/05/11 11:15:26;;;;;;;2.53;0.17;;;22.50;43.30;;;;;;5080574;28;20048;-75
2022/05/11 11:17:54;;;;;;;1.42;0.10;;;22.50;43.30;;;;;;5087358;28;20089;-75
2022/05/11 11:20:21;;;;;;;1.67;0.10;;;22.50;43.30;;;;;;5086151;28;20048;-76
2022/05/11 11:26:02;;;;;;;4.10;0.30;;;22.50;43.50;;;;;;5104825;27;20366;-74
2022/05/11 11:28:52;;;;;;;3.08;0.35;;;22.50;43.70;;;;;;5104900;28;20474;-73
2022/05/11 11:31:19;;;;;;;;;;;22.50;43.80;;;;;;5106000;28;20611;-74
2022/05/11 11:36:45;;;;;;;3.50;0.10;;;22.50;43.70;;;;;;5126931;27;20358;-73
2022/05/11 11:39:32;;;;;;;7.90;0.38;;;22.50;43.80;;;;;;5108641;28;20039;-73
2022/05/11 11:42:04;;;;;;;6.93;0.20;;;22.50;43.90;;;;;;5105816;28;20372;-73
2022/05/11 11:44:40;;;;;;;8.43;0.20;;;22.50;43.90;;;;;;5111499;27;20028;-75
2022/05/11 11:50:12;;;;;;;5.30;0.20;;;22.50;44.00;;;;;;5085273;27;20691;-75
2022/05/11 11:52:44;;;;;;;3.78;0.10;;;22.50;44.10;;;;;;5072963;28;20072;-77
2022/05/11 11:55:27;;;;;;;3.45;0.17;;;22.50;44.10;;;;;;5066031;28;20046;-77
2022/05/11 11:57:57;;;;;;;2.78;0.20;;;22.40;43.90;;;;;;5075777;28;20044;-77
2022/05/11 12:03:17;;;;;;;5.13;0.20;;;22.50;44.00;;;;;;5147836;27;20099;-76
2022/05/11 12:05:46;;;;;;;2.97;0.13;;;22.50;44.20;;;;;;5125791;28;20042;-73
2022/05/11 12:16:53;;;;;;;2.38;0.20;;;22.40;44.40;;;;;;5151474;27;20051;-75
2022/05/11 12:19:21;;;;;;;2.05;0.45;;;22.30;44.40;;;;;;5151122;27;20481;-76
2022/05/11 12:22:01;;;;;;;2.15;1.00;;;22.30;44.60;;;;;;5153331;27;20087;-75
2022/05/11 12:24:33;;;;;;;1.60;0.13;;;22.30;44.60;;;;;;5171784;27;20458;-75
2022/05/11 12:27:02;;;;;;;2.08;0.20;;;22.20;44.60;;;;;;5151810;27;20070;-75
2022/05/11 12:29:59;;;;;;;2.20;0.10;;;22.20;44.70;;;;;;5169128;27;20053;-76
2022/05/11 12:32:22;;;;;;;2.30;0.15;;;22.20;44.80;;;;;;5151051;27;20038;-75
2022/05/11 12:34:48;;;;;;;2.35;0.20;;;22.20;44.90;;;;;;5152284;27;20096;-75
2022/05/11 12:42:51;;;;;;;5.20;0.20;;;22.10;44.80;;;;;;5130325;27;20357;-76
2022/05/11 12:45:25;;;;;;;4.57;0.20;;;22.10;44.80;;;;;;5128854;27;20108;-72
2022/05/11 12:47:56;;;;;;;2.72;0.15;;;22.10;44.90;;;;;;5128881;28;20070;-76
2022/05/11 12:53:26;;;;;;;1.67;0.20;;;22.00;44.70;;;;;;5130450;27;20350;-75
2022/05/11 12:56:05;;;;;;;2.50;0.17;;;22.00;44.60;;;;;;5146124;27;20043;-76
2022/05/11 12:58:31;;;;;;;1.17;0.10;;;22.00;45.40;;;;;;5128594;28;20050;-75
2022/05/11 13:01:00;;;;;;;1.80;0.20;;;22.00;44.60;;;;;;5146061;27;20039;-75
2022/05/11 13:03:30;;;;;;;3.83;0.20;;;22.00;44.70;;;;;;5128794;28;20421;-75
2022/05/11 13:06:21;;;;;;;2.17;0.10;;;22.00;44.60;;;;;;5128704;28;20471;-77
2022/05/11 13:08:53;;;;;;;2.13;0.10;;;22.00;44.60;;;;;;5145771;27;20462;-76
2022/05/11 13:11:22;;;;;;;0.80;0.10;;;22.00;44.70;;;;;;5127691;28;20051;-76
2022/05/11 13:13:52;;;;;;;1.52;0.10;;;22.00;44.70;;;;;;5129012;28;20036;-75
2022/05/11 13:19:26;;;;;;;2.60;0.10;;;22.00;44.70;;;;;;5129179;27;20489;-76
2022/05/11 13:21:55;;;;;;;1.08;0.20;;;22.00;44.80;;;;;;5129608;28;20055;-76
2022/05/11 13:24:45;;;;;;;2.78;0.20;;;21.90;44.80;;;;;;5128904;28;20118;-75
2022/05/11 13:27:37;;;;;;;2.45;0.10;;;22.00;44.80;;;;;;5128890;28;20046;-75
2022/05/11 13:33:01;;;;;;;0.75;0.10;;;21.90;44.80;;;;;;5130254;27;20435;-77
2022/05/11 13:35:36;;;;;;;2.08;0.20;;;22.00;45.00;;;;;;5128963;27;20494;-76
2022/05/11 13:38:18;;;;;;;2.25;0.45;;;21.90;44.90;;;;;;5129031;28;20079;-76
2022/05/11 13:41:00;;;;;;;2.30;0.10;;;21.90;44.90;;;;;;5129196;28;20036;-76
2022/05/11 13:43:31;;;;;;;1.75;0.10;;;22.00;45.00;;;;;;5130229;27;20051;-76
2022/05/11 13:48:43;;;;;;;4.15;0.30;;;22.00;45.00;;;;;;5089372;28;20430;-76
2022/05/11 13:51:26;;;;;;;1.77;0.30;;;21.90;45.00;;;;;;5088246;28;20059;-75
2022/05/11 13:53:56;;;;;;;1.92;0.20;;;22.00;45.20;;;;;;5088066;28;20072;-75
2022/05/11 14:01:46;;;;;;;3.33;0.35;;;22.00;45.20;;;;;;5109876;27;20355;-76
2022/05/11 14:04:12;;;;;;;1.30;0.20;;;21.90;45.20;;;;;;5108375;28;20075;-76
2022/05/11 14:06:57;;;;;;;1.45;0.10;;;21.90;45.10;;;;;;5108674;28;20104;-75
2022/05/11 14:09:23;;;;;;;1.77;0.10;;;21.90;45.20;;;;;;5107774;28;20467;-78
2022/05/11 14:11:52;;;;;;;2.17;0.10;;;22.00;45.20;;;;;;5108539;28;20119;-76
2022/05/11 14:14:17;;;;;;;1.70;0.10;;;21.90;45.20;;;;;;5108288;28;20047;-76
2022/05/11 14:16:43;;;;;;;2.55;0.15;;;22.00;45.30;;;;;;5108524;28;20035;-77
2022/05/11 14:19:09;;;;;;;2.85;0.30;;;22.00;45.30;;;;;;5108101;28;20529;-75
2022/05/11 14:21:44;;;;;;;1.15;0.20;;;22.00;45.30;;;;;;5108220;28;20075;-75
2022/05/11 14:24:10;;;;;;;2.10;0.20;;;22.00;45.30;;;;;;5108110;28;20040;-75
2022/05/11 14:26:42;;;;;;;1.77;0.13;;;22.00;45.40;;;;;;5108185;28;20046;-75
2022/05/11 14:29:12;;;;;;;1.58;0.28;;;22.00;45.50;;;;;;5108255;28;20036;-75
2022/05/11 14:31:40;;;;;;;1.42;0.10;;;21.90;45.40;;;;;;5108350;28;20055;-75
2022/05/11 14:34:10;;;;;;;2.97;0.32;;;21.90;45.40;;;;;;5108065;28;20100;-76
2022/05/11 14:36:36;;;;;;;2.17;0.20;;;21.90;45.40;;;;;;5108164;28;20043;-75
2022/05/11 14:39:02;;;;;;;2.78;0.10;;;21.90;45.50;;;;;;5108932;28;20400;-76
2022/05/11 14:41:29;;;;;;;2.58;0.13;;;21.90;45.50;;;;;;5107749;28;20042;-67
2022/05/11 14:43:57;;;;;;;2.17;0.22;;;21.90;45.60;;;;;;5109204;28;20490;-75
2022/05/11 14:46:26;;;;;;;2.38;0.17;;;21.90;45.60;;;;;;5107870;28;20066;-75
2022/05/11 14:48:53;;;;;;;2.05;0.30;;;21.90;45.60;;;;;;5141938;27;20173;-68
2022/05/11 14:51:19;;;;;;;3.13;0.52;;;21.90;45.60;;;;;;5107540;28;20065;-75
2022/05/11 14:53:47;;;;;;;1.80;0.20;;;21.90;45.70;;;;;;5108810;28;20048;-74
2022/05/11 14:56:14;;;;;;;1.17;0.25;;;21.90;45.70;;;;;;5107558;28;20224;-75
2022/05/11 15:02:00;;;;;;;0.73;0.10;;;21.90;45.80;;;;;;5106971;28;20369;-73
2022/05/11 15:04:35;;;;;;;1.75;0.10;;;21.90;45.90;;;;;;5107114;28;20475;-76
2022/05/11 15:07:01;;;;;;;3.03;0.22;;;21.90;45.90;;;;;;5107476;28;20036;-76
2022/05/11 15:09:28;;;;;;;2.78;0.30;;;21.90;45.90;;;;;;5107493;28;20039;-75
2022/05/11 15:14:42;;;;;;;1.40;0.20;;;21.90;45.80;;;;;;5093408;28;20043;-76
2022/05/11 15:17:16;;;;;;;1.27;0.20;;;21.90;45.90;;;;;;5094735;28;20040;-76
2022/05/11 15:19:42;;;;;;;2.33;0.30;;;21.90;45.90;;;;;;5093507;28;20089;-75